createdAt,value
2018-01-12T00:00:56.959Z,18.63
2018-01-12T00:03:24.453Z,16.40
2018-01-12T00:05:52.442Z,18.37
2018-01-12T00:08:20.297Z,19.00
2018-01-12T00:10:47.766Z,16.90
2018-01-12T00:13:15.743Z,16.90
2018-01-12T00:15:43.192Z,16.50
2018-01-12T00:18:10.648Z,17.27
2018-01-12T00:20:38.757Z,15.83
2018-01-12T00:23:06.213Z,18.37
2018-01-12T00:25:33.676Z,18.10
2018-01-12T00:28:01.737Z,17.50
2018-01-12T00:30:29.194Z,16.00
2018-01-12T00:32:56.653Z,18.03
2018-01-12T00:35:24.462Z,17.17
2018-01-12T00:37:51.939Z,16.40
2018-01-12T00:40:19.396Z,18.27
2018-01-12T00:42:47.095Z,18.67
2018-01-12T00:45:14.560Z,16.50
2018-01-12T00:47:42.036Z,18.60
2018-01-12T00:50:10.111Z,19.63
2018-01-12T00:52:37.574Z,19.67
2018-01-12T00:55:05.039Z,19.13
2018-01-12T00:57:32.797Z,18.67
2018-01-12T01:00:00.274Z,21.23
2018-01-12T01:02:27.741Z,20.70
2018-01-12T01:04:55.424Z,19.90
2018-01-12T01:07:22.892Z,21.93
2018-01-12T01:09:51.089Z,18.97
2018-01-12T01:12:19.085Z,21.90
2018-01-12T01:14:46.541Z,19.00
2018-01-12T01:17:14.002Z,21.93
2018-01-12T01:19:41.782Z,20.60
2018-01-12T01:22:09.238Z,19.30
2018-01-12T01:24:36.692Z,19.43
2018-01-12T01:27:04.461Z,19.70
2018-01-12T01:29:31.912Z,17.80
2018-01-12T01:31:59.368Z,18.93
2018-01-12T01:34:27.098Z,16.83
2018-01-12T01:36:54.572Z,17.60
2018-01-12T01:39:22.035Z,16.67
2018-01-12T01:41:49.755Z,16.97
2018-01-12T01:44:17.213Z,17.00
2018-01-12T01:46:44.675Z,15.50
2018-01-12T01:49:12.528Z,16.67
2018-01-12T01:51:39.981Z,15.07
2018-01-12T01:54:07.445Z,15.37
2018-01-12T01:56:35.164Z,16.50
2018-01-12T01:59:02.622Z,15.90
2018-01-12T02:01:30.081Z,13.93
2018-01-12T02:03:57.908Z,12.77
2018-01-12T02:06:25.360Z,13.23
2018-01-12T02:08:52.817Z,13.93
2018-01-12T02:11:20.599Z,11.80
2018-01-12T02:13:48.086Z,14.60
2018-01-12T02:16:15.558Z,13.80
2018-01-12T02:18:43.580Z,13.90
2018-01-12T02:21:11.040Z,14.17
2018-01-12T02:23:38.500Z,12.80
2018-01-12T02:26:06.273Z,14.73
2018-01-12T02:28:33.740Z,13.30
2018-01-12T02:31:01.192Z,16.03
2018-01-12T02:33:28.967Z,13.93
2018-01-12T02:35:56.426Z,15.10
2018-01-12T02:38:23.879Z,13.93
2018-01-12T02:40:52.257Z,14.10
2018-01-12T02:43:19.716Z,15.57
2018-01-12T02:45:47.176Z,12.53
2018-01-12T02:48:15.252Z,13.50
2018-01-12T02:50:42.714Z,13.00
2018-01-12T02:53:10.175Z,12.67
2018-01-12T02:55:37.938Z,13.47
2018-01-12T02:58:05.420Z,11.80
2018-01-12T03:00:32.889Z,13.27
2018-01-12T03:03:00.637Z,12.43
2018-01-12T03:05:28.097Z,13.60
2018-01-12T03:07:55.560Z,12.53
2018-01-12T03:10:23.313Z,14.13
2018-01-12T03:12:50.929Z,12.97
2018-01-12T03:15:18.388Z,13.97
2018-01-12T03:17:46.325Z,13.50
2018-01-12T03:20:13.786Z,14.50
2018-01-12T03:22:41.250Z,12.57
2018-01-12T03:25:08.990Z,14.00
2018-01-12T03:27:36.445Z,16.70
2018-01-12T03:30:03.909Z,15.47
2018-01-12T03:32:31.682Z,14.50
2018-01-12T03:34:59.147Z,16.27
2018-01-12T03:37:26.608Z,14.17
2018-01-12T03:39:54.357Z,16.30
2018-01-12T03:42:21.821Z,17.47
2018-01-12T03:44:49.278Z,17.37
2018-01-12T03:47:17.045Z,19.60
2018-01-12T03:49:44.506Z,19.67
2018-01-12T03:52:11.965Z,19.50
2018-01-12T03:54:39.736Z,20.30
2018-01-12T03:57:07.192Z,19.07
2018-01-12T03:59:34.644Z,22.87
2018-01-12T04:02:02.440Z,19.70
2018-01-12T04:04:30.916Z,22.57
2018-01-12T04:06:58.369Z,21.63
2018-01-12T04:09:26.037Z,21.33
2018-01-12T04:11:53.506Z,22.53
2018-01-12T04:14:22.872Z,17.63
2018-01-12T04:16:50.565Z,18.30
2018-01-12T04:19:18.023Z,20.77
2018-01-12T04:21:45.477Z,22.90
2018-01-12T04:24:13.256Z,21.83
2018-01-12T04:26:40.711Z,26.70
2018-01-12T04:29:08.173Z,22.20
2018-01-12T04:31:35.939Z,28.80
2018-01-12T04:34:03.401Z,26.23
2018-01-12T04:36:30.858Z,27.63
2018-01-12T04:38:58.629Z,28.37
2018-01-12T04:41:26.093Z,31.13
2018-01-12T04:43:53.557Z,27.97
2018-01-12T04:46:21.320Z,28.47
2018-01-12T04:48:48.787Z,30.13
2018-01-12T04:51:16.253Z,30.40
2018-01-12T04:53:44.006Z,29.73
2018-01-12T04:56:12.465Z,29.30
2018-01-12T04:58:39.936Z,30.10
2018-01-12T05:01:07.926Z,31.37
2018-01-12T05:03:35.401Z,25.47
2018-01-12T05:06:02.865Z,27.40
2018-01-12T05:08:30.624Z,30.77
2018-01-12T05:10:58.092Z,30.60
2018-01-12T05:13:25.591Z,34.00
2018-01-12T05:15:54.042Z,31.17
2018-01-12T05:18:21.514Z,30.40
2018-01-12T05:20:48.992Z,31.80
2018-01-12T05:23:16.897Z,28.27
2018-01-12T05:25:44.364Z,27.67
2018-01-12T05:28:11.830Z,31.17
2018-01-12T05:30:41.739Z,30.17
2018-01-12T05:33:09.191Z,29.40
2018-01-12T05:35:36.638Z,29.63
2018-01-12T05:38:04.741Z,26.00
2018-01-12T05:40:32.201Z,29.00
2018-01-12T05:42:59.659Z,31.60
2018-01-12T05:45:27.413Z,31.07
2018-01-12T05:47:54.865Z,31.80
2018-01-12T05:50:22.325Z,32.30
2018-01-12T05:52:50.709Z,33.97
2018-01-12T05:55:18.161Z,34.40
2018-01-12T05:57:45.620Z,33.33
2018-01-12T06:00:13.418Z,37.23
2018-01-12T06:02:52.678Z,36.13
2018-01-12T06:08:22.433Z,40.50
2018-01-12T06:10:50.247Z,30.70
2018-01-12T06:13:17.715Z,34.90
2018-01-12T06:15:45.178Z,36.60
2018-01-12T06:18:13.902Z,25.53
2018-01-12T06:20:41.359Z,30.10
2018-01-12T06:23:08.840Z,38.60
2018-01-12T06:25:36.853Z,37.67
2018-01-12T06:28:04.324Z,42.70
2018-01-12T06:30:31.781Z,41.40
2018-01-12T06:32:59.541Z,42.67
2018-01-12T06:35:27.005Z,41.73
2018-01-12T06:37:54.469Z,39.43
2018-01-12T06:40:22.538Z,41.83
2018-01-12T06:42:50.003Z,41.27
2018-01-12T06:45:17.463Z,36.17
2018-01-12T06:47:45.213Z,37.83
2018-01-12T06:50:12.667Z,35.70
2018-01-12T06:52:40.113Z,36.77
2018-01-12T06:55:07.813Z,38.97
2018-01-12T06:57:35.273Z,37.70
2018-01-12T07:00:02.758Z,39.20
2018-01-12T07:02:30.585Z,38.63
2018-01-12T07:04:58.045Z,40.20
2018-01-12T07:07:25.496Z,39.27
2018-01-12T07:09:53.287Z,41.10
2018-01-12T07:12:20.745Z,39.53
2018-01-12T07:14:48.209Z,38.77
2018-01-12T07:17:16.281Z,41.00
2018-01-12T07:19:43.916Z,39.23
2018-01-12T07:22:32.330Z,37.93
2018-01-12T07:24:59.795Z,40.10
2018-01-12T07:27:27.249Z,37.23
2018-01-12T07:29:55.071Z,36.53
2018-01-12T07:32:22.530Z,38.07
2018-01-12T07:34:49.984Z,33.60
2018-01-12T07:37:17.770Z,36.80
2018-01-12T07:39:45.222Z,33.10
2018-01-12T07:42:12.681Z,36.37
2018-01-12T07:44:40.445Z,34.20
2018-01-12T07:47:07.892Z,33.47
2018-01-12T07:49:35.345Z,32.40
2018-01-12T07:52:03.140Z,28.43
2018-01-12T07:54:30.609Z,34.53
2018-01-12T07:56:58.061Z,34.20
2018-01-12T07:59:25.830Z,36.17
2018-01-12T08:01:58.769Z,33.37
2018-01-12T08:04:26.234Z,34.33
2018-01-12T08:06:54.033Z,33.17
2018-01-12T08:09:21.481Z,33.10
2018-01-12T08:11:48.935Z,30.77
2018-01-12T08:14:16.716Z,33.87
2018-01-12T08:16:44.165Z,30.03
2018-01-12T08:19:11.660Z,33.47
2018-01-12T08:21:41.903Z,31.30
2018-01-12T08:24:09.353Z,31.90
2018-01-12T08:26:36.813Z,33.33
2018-01-12T08:29:04.827Z,31.17
2018-01-12T08:31:32.280Z,36.17
2018-01-12T08:33:59.740Z,31.83
2018-01-12T08:36:27.564Z,28.70
2018-01-12T08:38:55.023Z,33.27
2018-01-12T08:41:22.478Z,34.60
2018-01-12T08:43:50.236Z,34.10
2018-01-12T08:46:17.698Z,32.57
2018-01-12T08:48:45.178Z,31.63
2018-01-12T08:51:12.939Z,28.80
2018-01-12T08:53:40.404Z,32.27
2018-01-12T08:56:07.853Z,31.00
2018-01-12T08:58:35.622Z,30.63
2018-01-12T09:01:03.072Z,29.70
2018-01-12T09:03:32.208Z,28.27
2018-01-12T09:05:59.660Z,29.03
2018-01-12T09:08:27.117Z,26.50
2018-01-12T09:10:55.071Z,29.07
2018-01-12T09:16:29.931Z,26.40
2018-01-12T09:19:09.152Z,24.17
2018-01-12T09:21:37.169Z,26.10
2018-01-12T09:24:16.221Z,23.57
2018-01-12T09:26:44.033Z,26.00
2018-01-12T09:29:11.492Z,26.50
2018-01-12T09:31:39.675Z,22.00
2018-01-12T09:34:19.327Z,22.57
2018-01-12T09:36:46.798Z,25.50
2018-01-12T09:39:14.262Z,24.43
2018-01-12T09:41:42.316Z,20.90
2018-01-12T09:44:09.780Z,24.17
2018-01-12T09:46:37.235Z,21.30
2018-01-12T09:49:09.472Z,23.93
2018-01-12T09:51:36.924Z,24.37
2018-01-12T09:54:04.380Z,24.70
2018-01-12T09:56:32.325Z,24.10
2018-01-12T09:59:04.685Z,25.47
2018-01-12T10:01:41.353Z,23.37
2018-01-12T10:04:09.484Z,26.37
2018-01-12T10:06:36.935Z,22.23
2018-01-12T10:09:04.649Z,24.20
2018-01-12T10:11:32.106Z,22.30
2018-01-12T10:13:59.564Z,22.87
2018-01-12T10:16:27.324Z,23.87
2018-01-12T10:18:54.777Z,20.70
2018-01-12T10:21:34.225Z,19.70
2018-01-12T10:24:01.675Z,24.07
2018-01-12T10:26:29.156Z,20.37
2018-01-12T10:29:08.898Z,20.13
2018-01-12T10:31:47.960Z,21.33
2018-01-12T10:34:24.460Z,22.63
2018-01-12T10:36:54.841Z,22.40
2018-01-12T10:39:22.295Z,20.53
2018-01-12T10:42:01.835Z,20.83
2018-01-12T10:44:29.293Z,21.47
2018-01-12T10:47:08.742Z,21.37
2018-01-12T10:49:36.265Z,21.97
2018-01-12T10:52:07.581Z,22.53
2018-01-12T10:54:35.429Z,20.43
2018-01-12T10:57:02.897Z,22.77
2018-01-12T10:59:30.360Z,23.70
2018-01-12T11:01:58.113Z,23.00
2018-01-12T11:04:26.004Z,22.33
2018-01-12T11:06:53.455Z,20.90
2018-01-12T11:09:21.395Z,20.97
2018-01-12T11:11:48.850Z,21.00
2018-01-12T11:14:16.301Z,19.70
2018-01-12T11:16:44.400Z,20.03
2018-01-12T11:19:11.846Z,19.03
2018-01-12T11:21:39.314Z,18.80
2018-01-12T11:24:07.476Z,20.10
2018-01-12T11:26:34.929Z,19.50
2018-01-12T11:29:02.512Z,20.07
2018-01-12T11:31:30.391Z,21.27
2018-01-12T11:33:57.840Z,22.97
2018-01-12T11:36:25.294Z,20.87
2018-01-12T11:38:53.227Z,22.60
2018-01-12T11:41:20.684Z,21.53
2018-01-12T11:43:48.189Z,22.10
2018-01-12T11:46:16.056Z,21.77
2018-01-12T11:48:43.879Z,21.53
2018-01-12T11:51:11.345Z,21.27
2018-01-12T11:53:39.977Z,25.97
2018-01-12T11:56:07.436Z,22.23
2018-01-12T11:58:34.893Z,23.23
2018-01-12T12:01:02.695Z,23.60
2018-01-12T12:03:30.981Z,25.53
2018-01-12T12:05:58.895Z,26.37
2018-01-12T12:08:26.890Z,26.30
2018-01-12T12:10:54.337Z,25.60
2018-01-12T12:13:22.092Z,24.00
2018-01-12T12:15:49.885Z,26.50
2018-01-12T12:18:17.345Z,25.33
2018-01-12T12:20:44.797Z,27.00
2018-01-12T12:23:12.590Z,24.67
2018-01-12T12:25:40.261Z,25.77
2018-01-12T12:28:07.708Z,27.23
2018-01-12T12:30:35.567Z,25.97
2018-01-12T12:33:03.718Z,25.87
2018-01-12T12:35:31.163Z,26.27
2018-01-12T12:37:59.177Z,26.20
2018-01-12T12:40:27.293Z,28.03
2018-01-12T12:42:54.747Z,26.80
2018-01-12T12:45:22.476Z,26.27
2018-01-12T12:47:49.939Z,26.17
2018-01-12T12:50:17.595Z,29.33
2018-01-12T12:52:45.796Z,28.47
2018-01-12T12:55:13.771Z,26.47
2018-01-12T12:57:41.231Z,28.47
2018-01-12T13:00:09.129Z,27.80
2018-01-12T13:02:36.895Z,27.80
2018-01-12T13:05:04.360Z,26.00
2018-01-12T13:07:32.688Z,25.13
2018-01-12T13:10:00.157Z,25.93
2018-01-12T13:12:27.624Z,26.63
2018-01-12T13:14:55.400Z,25.43
2018-01-12T13:17:22.860Z,25.27
2018-01-12T13:19:50.315Z,22.97
2018-01-12T13:22:17.947Z,23.20
2018-01-12T13:24:45.404Z,23.87
2018-01-12T13:27:12.874Z,22.87
2018-01-12T13:29:40.767Z,21.97
2018-01-12T13:32:08.225Z,22.03
2018-01-12T13:34:35.756Z,23.83
2018-01-12T13:37:03.431Z,22.80
2018-01-12T13:39:30.895Z,21.43
2018-01-12T13:41:58.336Z,20.63
2018-01-12T13:44:26.464Z,20.60
2018-01-12T13:46:53.920Z,21.63
2018-01-12T13:49:21.375Z,22.57
2018-01-12T13:51:49.436Z,18.50
2018-01-12T13:54:16.912Z,21.00
2018-01-12T13:56:44.355Z,20.13
2018-01-12T13:59:12.423Z,19.77
2018-01-12T14:01:39.868Z,20.07
2018-01-12T14:04:07.324Z,21.80
2018-01-12T14:06:34.908Z,19.60
2018-01-12T14:09:02.682Z,19.43
2018-01-12T14:11:30.134Z,18.67
2018-01-12T14:13:58.102Z,20.90
2018-01-12T14:16:25.547Z,19.40
2018-01-12T14:18:53.015Z,21.47
2018-01-12T14:21:20.785Z,19.77
2018-01-12T14:23:48.243Z,22.97
2018-01-12T14:26:15.696Z,19.97
2018-01-12T14:28:43.481Z,20.83
2018-01-12T14:31:10.932Z,22.40
2018-01-12T14:33:38.388Z,20.83
2018-01-12T14:36:06.485Z,19.50
2018-01-12T14:38:33.942Z,21.60
2018-01-12T14:41:01.400Z,19.60
2018-01-12T14:43:29.158Z,21.47
2018-01-12T14:45:56.624Z,20.90
2018-01-12T14:48:24.095Z,20.17
2018-01-12T14:50:52.157Z,21.20
2018-01-12T14:53:19.602Z,21.73
2018-01-12T14:55:47.057Z,23.23
2018-01-12T14:58:14.844Z,23.10
2018-01-12T15:00:42.309Z,18.80
2018-01-12T15:03:09.783Z,19.40
2018-01-12T15:05:37.572Z,19.90
2018-01-12T15:08:05.042Z,17.87
2018-01-12T15:10:33.122Z,18.57
2018-01-12T15:13:00.821Z,19.73
2018-01-12T15:15:28.294Z,20.37
2018-01-12T15:17:55.774Z,19.70
2018-01-12T15:20:23.922Z,20.00
2018-01-12T15:22:51.387Z,20.50
2018-01-12T15:25:18.857Z,19.13
2018-01-12T15:27:46.576Z,21.30
2018-01-12T15:30:14.028Z,19.30
2018-01-12T15:32:41.485Z,20.50
2018-01-12T15:35:09.196Z,21.30
2018-01-12T15:37:36.661Z,21.80
2018-01-12T15:40:04.125Z,18.67
2018-01-12T15:42:31.872Z,19.47
2018-01-12T15:44:59.338Z,19.17
2018-01-12T15:47:26.802Z,17.60
2018-01-12T15:49:54.602Z,21.53
2018-01-12T15:52:22.058Z,22.50
2018-01-12T15:54:49.515Z,20.63
2018-01-12T15:57:17.261Z,20.93
2018-01-12T15:59:44.704Z,20.20
2018-01-12T16:02:12.165Z,20.87
2018-01-12T16:04:40.271Z,21.80
2018-01-12T16:07:07.741Z,22.73
2018-01-12T16:09:35.198Z,20.57
2018-01-12T16:12:04.173Z,22.50
2018-01-12T16:14:31.638Z,22.60
2018-01-12T16:16:59.103Z,23.97
2018-01-12T16:19:26.865Z,23.63
2018-01-12T16:21:54.341Z,22.73
2018-01-12T16:24:21.828Z,21.80
2018-01-12T16:26:49.573Z,22.50
2018-01-12T16:29:17.036Z,23.27
2018-01-12T16:31:44.518Z,22.20
2018-01-12T16:34:12.487Z,24.00
2018-01-12T16:36:39.976Z,22.97
2018-01-12T16:39:07.434Z,24.80
2018-01-12T16:41:35.213Z,25.80
2018-01-12T16:44:02.670Z,26.67
2018-01-12T16:46:30.132Z,25.07
2018-01-12T16:48:57.929Z,26.27
2018-01-12T16:51:25.388Z,25.77
2018-01-12T16:53:52.846Z,25.87
2018-01-12T16:56:20.599Z,27.73
2018-01-12T16:58:48.064Z,35.60
2018-01-12T17:01:15.530Z,27.47
2018-01-12T17:03:43.284Z,26.80
2018-01-12T17:06:10.756Z,29.73
2018-01-12T17:08:38.214Z,30.50
2018-01-12T17:11:05.976Z,34.33
2018-01-12T17:13:33.518Z,30.70
2018-01-12T17:16:00.985Z,32.40
2018-01-12T17:18:28.903Z,24.57
2018-01-12T17:20:56.378Z,37.90
2018-01-12T17:23:23.840Z,46.47
2018-01-12T17:25:51.553Z,28.77
2018-01-12T17:28:19.015Z,34.40
2018-01-12T17:30:46.472Z,29.93
2018-01-12T17:33:14.364Z,42.43
2018-01-12T17:35:41.825Z,31.60
2018-01-12T17:38:09.285Z,32.43
2018-01-12T17:40:36.969Z,31.60
2018-01-12T17:43:04.486Z,29.60
2018-01-12T17:45:31.933Z,30.27
2018-01-12T17:48:00.200Z,28.40
2018-01-12T17:50:27.678Z,30.40
2018-01-12T17:52:55.169Z,28.80
2018-01-12T17:55:23.012Z,27.33
2018-01-12T17:57:50.484Z,28.47
2018-01-12T18:00:17.950Z,31.37
2018-01-12T18:02:45.696Z,36.00
2018-01-12T18:05:13.165Z,28.03
2018-01-12T18:07:40.639Z,31.13
2018-01-12T18:10:08.392Z,27.70
2018-01-12T18:12:35.893Z,30.63
2018-01-12T18:15:04.000Z,28.73
2018-01-12T18:17:31.976Z,33.70
2018-01-12T18:19:59.435Z,29.20
2018-01-12T18:22:26.889Z,29.47
2018-01-12T18:24:54.683Z,34.00
2018-01-12T18:27:22.138Z,31.60
2018-01-12T18:29:49.604Z,30.73
2018-01-12T18:32:17.704Z,29.60
2018-01-12T18:34:45.160Z,30.53
2018-01-12T18:37:12.617Z,29.40
2018-01-12T18:39:40.381Z,33.57
2018-01-12T18:42:07.849Z,28.33
2018-01-12T18:44:35.313Z,31.00
2018-01-12T18:47:03.044Z,30.37
2018-01-12T18:49:30.500Z,31.00
2018-01-12T18:51:57.957Z,28.53
2018-01-12T18:54:25.872Z,32.67
2018-01-12T18:56:53.321Z,31.60
2018-01-12T18:59:20.789Z,32.97
2018-01-12T19:01:48.737Z,30.60
2018-01-12T19:04:16.191Z,31.60
2018-01-12T19:06:43.667Z,30.57
2018-01-12T19:09:11.420Z,34.07
2018-01-12T19:11:38.883Z,47.10
2018-01-12T19:14:06.340Z,31.37
2018-01-12T19:16:36.261Z,32.40
2018-01-12T19:19:03.757Z,33.20
2018-01-12T19:21:31.208Z,31.97
2018-01-12T19:23:59.049Z,30.00
2018-01-12T19:26:26.506Z,30.07
2018-01-12T19:28:53.966Z,31.37
2018-01-12T19:31:21.943Z,29.70
2018-01-12T19:33:49.400Z,28.00
2018-01-12T19:36:16.861Z,29.30
2018-01-12T19:38:44.942Z,27.47
2018-01-12T19:41:12.397Z,31.73
2018-01-12T19:43:39.877Z,30.30
2018-01-12T19:46:07.617Z,29.67
2018-01-12T19:48:35.070Z,29.50
2018-01-12T19:51:02.520Z,28.80
2018-01-12T19:53:30.390Z,30.47
2018-01-12T19:55:57.849Z,31.17
2018-01-12T19:58:25.308Z,32.37
2018-01-12T20:00:52.996Z,31.73
2018-01-12T20:03:20.460Z,31.07
2018-01-12T20:05:47.928Z,31.53
2018-01-12T20:08:15.693Z,31.33
2018-01-12T20:10:43.144Z,31.00
2018-01-12T20:13:10.601Z,31.87
2018-01-12T20:15:38.387Z,31.40
2018-01-12T20:18:08.094Z,31.07
2018-01-12T20:20:35.570Z,30.20
2018-01-12T20:23:03.515Z,30.57
2018-01-12T20:25:31.906Z,30.90
2018-01-12T20:27:59.378Z,33.67
2018-01-12T20:30:27.161Z,30.10
2018-01-12T20:32:54.624Z,31.50
2018-01-12T20:35:22.086Z,30.80
2018-01-12T20:37:49.805Z,32.87
2018-01-12T20:40:17.272Z,30.90
2018-01-12T20:42:44.748Z,29.80
2018-01-12T20:45:12.504Z,31.10
2018-01-12T20:47:39.968Z,30.90
2018-01-12T20:50:07.420Z,32.57
2018-01-12T20:52:35.185Z,33.97
2018-01-12T20:55:02.644Z,34.47
2018-01-12T20:57:30.109Z,33.37
2018-01-12T20:59:57.873Z,33.30
2018-01-12T21:02:25.341Z,33.40
2018-01-12T21:04:52.797Z,35.50
2018-01-12T21:07:20.568Z,33.67
2018-01-12T21:09:48.026Z,36.37
2018-01-12T21:12:15.502Z,34.00
2018-01-12T21:14:43.241Z,34.40
2018-01-12T21:17:11.072Z,33.40
2018-01-12T21:19:39.173Z,31.93
2018-01-12T21:22:07.168Z,33.23
2018-01-12T21:24:34.634Z,32.90
2018-01-12T21:27:02.092Z,34.83
2018-01-12T21:29:29.852Z,35.10
2018-01-12T21:31:57.315Z,34.90
2018-01-12T21:34:24.771Z,32.80
2018-01-12T21:36:52.578Z,33.07
2018-01-12T21:39:20.044Z,33.53
2018-01-12T21:41:47.506Z,31.40
2018-01-12T21:44:15.227Z,33.00
2018-01-12T21:46:42.680Z,31.10
2018-01-12T21:49:10.151Z,31.50
2018-01-12T21:51:37.919Z,28.83
2018-01-12T21:54:05.371Z,30.17
2018-01-12T21:56:32.834Z,29.43
2018-01-12T21:59:00.904Z,31.17
2018-01-12T22:01:28.373Z,33.47
2018-01-12T22:03:55.836Z,31.30
2018-01-12T22:06:23.472Z,31.67
2018-01-12T22:08:50.928Z,32.87
2018-01-12T22:11:18.394Z,34.93
2018-01-12T22:13:46.269Z,31.80
2018-01-12T22:16:13.741Z,34.53
2018-01-12T22:18:41.204Z,33.50
2018-01-12T22:21:11.714Z,36.80
2018-01-12T22:23:39.164Z,34.93
2018-01-12T22:26:06.621Z,37.30
2018-01-12T22:28:34.963Z,38.07
2018-01-12T22:31:02.437Z,39.93
2018-01-12T22:33:29.889Z,39.53
2018-01-12T22:35:57.615Z,38.33
2018-01-12T22:38:25.077Z,39.93
2018-01-12T22:40:52.537Z,37.70
2018-01-12T22:43:20.405Z,38.50
2018-01-12T22:45:47.856Z,39.97
2018-01-12T22:48:15.313Z,38.47
2018-01-12T22:50:43.392Z,38.70
2018-01-12T22:53:10.858Z,39.60
2018-01-12T22:55:38.315Z,39.17
2018-01-12T22:58:06.079Z,39.50
2018-01-12T23:00:33.534Z,39.10
2018-01-12T23:03:00.981Z,38.10
2018-01-12T23:05:28.766Z,39.17
2018-01-12T23:07:56.248Z,38.53
2018-01-12T23:10:23.695Z,38.57
2018-01-12T23:12:51.770Z,38.77
2018-01-12T23:15:19.233Z,39.87
2018-01-12T23:17:46.681Z,39.80
2018-01-12T23:20:14.440Z,41.20
2018-01-12T23:22:42.292Z,42.47
2018-01-12T23:25:09.753Z,40.60
2018-01-12T23:27:37.748Z,43.30
2018-01-12T23:30:05.201Z,47.27
2018-01-12T23:32:32.657Z,45.67
2018-01-12T23:35:00.441Z,46.50
2018-01-12T23:37:27.902Z,46.57
2018-01-12T23:39:55.360Z,47.90
2018-01-12T23:42:23.278Z,44.83
2018-01-12T23:44:50.739Z,46.53
2018-01-12T23:47:18.204Z,44.37
2018-01-12T23:49:46.108Z,45.33
2018-01-12T23:52:13.569Z,48.57
2018-01-12T23:54:41.016Z,48.60
2018-01-12T23:57:09.115Z,49.00
2018-01-12T23:59:36.576Z,48.40
